createdAt,value
2018-07-13T00:00:19.154Z,22.10
2018-07-13T00:01:23.595Z,22.10
2018-07-13T00:02:26.999Z,22.10
2018-07-13T00:03:30.383Z,22.10
2018-07-13T00:04:33.771Z,22.00
2018-07-13T00:05:38.172Z,22.00
2018-07-13T00:06:41.615Z,22.00
2018-07-13T00:07:44.999Z,21.90
2018-07-13T00:08:48.395Z,21.90
2018-07-13T00:09:51.791Z,21.90
2018-07-13T00:10:56.129Z,21.90
2018-07-13T00:14:13.639Z,21.80
2018-07-13T00:15:18.136Z,21.80
2018-07-13T00:16:22.778Z,21.70
2018-07-13T00:17:26.227Z,21.70
2018-07-13T00:18:30.347Z,21.70
2018-07-13T00:19:33.723Z,21.60
2018-07-13T00:20:38.266Z,21.60
2018-07-13T00:21:41.679Z,21.60
2018-07-13T00:22:45.076Z,21.60
2018-07-13T00:23:48.467Z,21.60
2018-07-13T00:24:51.884Z,21.60
2018-07-13T00:25:56.346Z,21.50
2018-07-13T00:26:59.746Z,21.50
2018-07-13T00:28:03.176Z,21.60
2018-07-13T00:29:07.183Z,21.50
2018-07-13T00:30:11.577Z,21.50
2018-07-13T00:31:16.073Z,21.50
2018-07-13T00:32:19.483Z,21.50
2018-07-13T00:33:22.899Z,21.40
2018-07-13T00:34:26.291Z,21.40
2018-07-13T00:35:31.271Z,21.40
2018-07-13T00:36:34.671Z,21.40
2018-07-13T00:37:38.048Z,21.40
2018-07-13T00:38:43.235Z,21.40
2018-07-13T00:39:46.623Z,21.40
2018-07-13T00:41:53.456Z,21.40
2018-07-13T00:42:56.835Z,21.40
2018-07-13T00:44:00.267Z,21.40
2018-07-13T00:45:04.084Z,21.40
2018-07-13T00:46:08.992Z,21.40
2018-07-13T00:47:12.419Z,21.50
2018-07-13T00:48:15.795Z,21.40
2018-07-13T00:49:19.191Z,21.50
2018-07-13T00:50:24.623Z,21.40
2018-07-13T00:51:28.907Z,21.40
2018-07-13T00:52:32.291Z,21.40
2018-07-13T00:53:35.679Z,21.40
2018-07-13T00:54:39.091Z,21.40
2018-07-13T00:55:43.924Z,21.40
2018-07-13T00:56:47.340Z,21.40
2018-07-13T00:57:50.735Z,21.30
2018-07-13T00:58:54.119Z,21.30
2018-07-13T01:01:01.688Z,21.30
2018-07-13T01:02:05.077Z,21.30
2018-07-13T01:04:12.611Z,21.20
2018-07-13T01:05:17.057Z,21.20
2018-07-13T01:06:21.595Z,21.20
2018-07-13T01:07:24.987Z,21.20
2018-07-13T01:08:28.375Z,21.10
2018-07-13T01:10:35.951Z,21.20
2018-07-13T01:11:39.403Z,21.20
2018-07-13T01:12:42.803Z,21.20
2018-07-13T01:13:46.188Z,21.20
2018-07-13T01:14:49.596Z,21.20
2018-07-13T01:15:53.946Z,21.10
2018-07-13T01:16:57.352Z,21.10
2018-07-13T01:18:00.743Z,21.10
2018-07-13T01:19:04.139Z,21.10
2018-07-13T01:20:07.681Z,21.10
2018-07-13T01:21:12.102Z,21.00
2018-07-13T01:22:15.531Z,21.00
2018-07-13T01:23:18.931Z,21.00
2018-07-13T01:24:22.327Z,21.00
2018-07-13T01:26:30.296Z,21.00
2018-07-13T01:27:33.679Z,21.00
2018-07-13T01:28:37.079Z,21.00
2018-07-13T01:29:40.464Z,21.00
2018-07-13T01:30:44.862Z,21.00
2018-07-13T01:31:48.263Z,21.00
2018-07-13T01:32:51.655Z,21.00
2018-07-13T01:33:55.040Z,21.00
2018-07-13T01:34:58.427Z,20.90
2018-07-13T01:36:03.064Z,21.00
2018-07-13T01:37:06.810Z,21.00
2018-07-13T01:38:10.228Z,21.00
2018-07-13T01:39:13.667Z,20.90
2018-07-13T01:40:18.111Z,20.90
2018-07-13T01:42:26.195Z,20.90
2018-07-13T01:43:29.567Z,20.90
2018-07-13T01:44:32.968Z,20.90
2018-07-13T01:45:37.502Z,20.90
2018-07-13T01:46:40.979Z,20.90
2018-07-13T01:47:44.560Z,20.90
2018-07-13T01:48:47.939Z,20.90
2018-07-13T01:49:51.336Z,20.90
2018-07-13T01:50:55.656Z,21.00
2018-07-13T01:54:05.407Z,21.00
2018-07-13T01:55:09.832Z,21.00
2018-07-13T01:57:16.992Z,21.00
2018-07-13T01:58:20.387Z,21.00
2018-07-13T01:59:23.774Z,21.00
2018-07-13T02:00:28.245Z,21.00
2018-07-13T02:01:32.631Z,21.00
2018-07-13T02:02:36.063Z,21.00
2018-07-13T02:03:39.456Z,21.00
2018-07-13T02:04:42.843Z,20.90
2018-07-13T02:05:47.926Z,20.90
2018-07-13T02:06:51.507Z,20.90
2018-07-13T02:07:54.917Z,20.90
2018-07-13T02:08:58.328Z,20.80
2018-07-13T02:10:01.735Z,20.80
2018-07-13T02:11:07.516Z,20.80
2018-07-13T02:12:11.039Z,20.70
2018-07-13T02:13:14.438Z,20.60
2018-07-13T02:14:17.824Z,20.60
2018-07-13T02:15:22.352Z,20.50
2018-07-13T02:19:35.831Z,20.50
2018-07-13T02:20:40.422Z,20.50
2018-07-13T02:21:43.848Z,20.50
2018-07-13T02:22:47.231Z,20.50
2018-07-13T02:23:50.648Z,20.40
2018-07-13T02:24:54.040Z,20.40
2018-07-13T02:25:58.516Z,20.40
2018-07-13T02:27:01.934Z,20.40
2018-07-13T02:28:05.329Z,20.40
2018-07-13T02:29:08.748Z,20.40
2018-07-13T02:30:13.045Z,20.50
2018-07-13T02:31:17.558Z,20.50
2018-07-13T02:32:20.985Z,20.50
2018-07-13T02:33:24.379Z,20.50
2018-07-13T02:34:27.803Z,20.50
2018-07-13T02:35:32.316Z,20.50
2018-07-13T02:39:45.148Z,20.50
2018-07-13T02:41:52.254Z,20.50
2018-07-13T02:42:55.651Z,20.50
2018-07-13T02:43:59.039Z,20.50
2018-07-13T02:45:02.440Z,20.50
2018-07-13T02:46:07.534Z,20.50
2018-07-13T02:47:10.947Z,20.50
2018-07-13T02:48:14.339Z,20.40
2018-07-13T02:49:17.732Z,20.40
2018-07-13T02:50:22.148Z,20.40
2018-07-13T02:52:30.150Z,20.40
2018-07-13T02:53:33.544Z,20.40
2018-07-13T02:54:36.932Z,20.40
2018-07-13T02:55:41.390Z,20.40
2018-07-13T02:56:44.827Z,20.40
2018-07-13T02:57:48.220Z,20.40
2018-07-13T02:58:51.700Z,20.40
2018-07-13T02:59:55.093Z,20.30
2018-07-13T03:00:59.648Z,20.30
2018-07-13T03:02:03.056Z,20.30
2018-07-13T03:03:06.443Z,20.30
2018-07-13T03:04:09.827Z,20.30
2018-07-13T03:05:14.269Z,20.30
2018-07-13T03:07:21.664Z,20.30
2018-07-13T03:08:25.052Z,20.30
2018-07-13T03:09:28.463Z,20.30
2018-07-13T03:11:35.788Z,20.30
2018-07-13T03:12:39.167Z,20.30
2018-07-13T03:13:42.600Z,20.30
2018-07-13T03:14:45.980Z,20.30
2018-07-13T03:15:50.360Z,20.30
2018-07-13T03:16:53.787Z,20.30
2018-07-13T03:23:13.319Z,20.20
2018-07-13T03:24:16.847Z,20.20
2018-07-13T03:25:21.215Z,20.20
2018-07-13T03:26:26.032Z,20.20
2018-07-13T03:27:29.483Z,20.10
2018-07-13T03:28:32.871Z,20.10
2018-07-13T03:31:43.285Z,20.00
2018-07-13T03:32:46.691Z,20.00
2018-07-13T03:33:50.083Z,20.00
2018-07-13T03:34:53.472Z,19.90
2018-07-13T03:35:57.909Z,19.90
2018-07-13T03:37:01.551Z,19.90
2018-07-13T03:38:04.969Z,19.80
2018-07-13T03:39:08.376Z,19.80
2018-07-13T03:40:12.856Z,19.80
2018-07-13T03:41:17.392Z,19.80
2018-07-13T03:42:20.810Z,19.70
2018-07-13T03:43:24.220Z,19.70
2018-07-13T03:44:27.615Z,19.70
2018-07-13T03:45:32.243Z,19.70
2018-07-13T03:49:44.933Z,19.70
2018-07-13T03:50:49.428Z,19.70
2018-07-13T03:51:52.830Z,19.70
2018-07-13T03:52:56.218Z,19.70
2018-07-13T03:53:59.627Z,19.70
2018-07-13T03:55:03.200Z,19.60
2018-07-13T03:56:08.164Z,19.70
2018-07-13T03:57:11.594Z,19.60
2018-07-13T03:58:15.006Z,19.60
2018-07-13T03:59:18.401Z,19.60
2018-07-13T04:00:23.726Z,19.50
2018-07-13T04:01:28.404Z,19.50
2018-07-13T04:02:31.791Z,19.50
2018-07-13T04:03:35.168Z,19.50
2018-07-13T04:04:38.563Z,19.50
2018-07-13T04:05:43.080Z,19.50
2018-07-13T04:06:46.489Z,19.50
2018-07-13T04:07:49.880Z,19.50
2018-07-13T04:08:53.267Z,19.60
2018-07-13T04:09:57.706Z,19.60
2018-07-13T04:11:02.035Z,19.60
2018-07-13T04:12:05.445Z,19.60
2018-07-13T04:13:08.845Z,19.60
2018-07-13T04:14:12.217Z,19.70
2018-07-13T04:15:17.669Z,19.70
2018-07-13T04:16:22.103Z,19.70
2018-07-13T04:17:25.488Z,19.70
2018-07-13T04:18:28.879Z,19.70
2018-07-13T04:19:32.282Z,19.70
2018-07-13T04:20:36.868Z,19.70
2018-07-13T04:21:40.275Z,19.70
2018-07-13T04:22:43.663Z,19.70
2018-07-13T04:23:47.055Z,19.60
2018-07-13T04:24:50.443Z,19.70
2018-07-13T04:25:55.086Z,19.60
2018-07-13T04:26:58.507Z,19.60
2018-07-13T04:28:01.903Z,19.60
2018-07-13T04:29:05.556Z,19.60
2018-07-13T04:30:09.858Z,19.70
2018-07-13T04:31:14.553Z,19.60
2018-07-13T04:32:17.999Z,19.60
2018-07-13T04:33:21.391Z,19.60
2018-07-13T04:34:24.803Z,19.60
2018-07-13T04:35:29.313Z,19.60
2018-07-13T04:36:32.757Z,19.60
2018-07-13T04:37:36.135Z,19.70
2018-07-13T04:38:39.511Z,19.70
2018-07-13T04:39:42.903Z,19.70
2018-07-13T04:40:48.273Z,19.70
2018-07-13T04:42:54.815Z,19.80
2018-07-13T04:43:58.205Z,19.80
2018-07-13T04:45:01.611Z,19.80
2018-07-13T04:47:08.731Z,19.80
2018-07-13T04:48:12.124Z,19.80
2018-07-13T04:49:15.503Z,19.70
2018-07-13T04:50:19.845Z,19.80
2018-07-13T04:51:24.362Z,19.70
2018-07-13T04:52:27.875Z,19.80
2018-07-13T04:53:31.267Z,19.80
2018-07-13T04:54:34.806Z,19.70
2018-07-13T04:55:39.314Z,19.70
2018-07-13T04:56:42.743Z,19.70
2018-07-13T04:57:46.155Z,19.80
2018-07-13T04:58:49.687Z,19.70
2018-07-13T04:59:53.089Z,19.70
2018-07-13T05:00:58.543Z,19.70
2018-07-13T05:03:05.288Z,19.70
2018-07-13T05:04:08.681Z,19.70
2018-07-13T05:05:13.179Z,19.70
2018-07-13T05:06:17.705Z,19.80
2018-07-13T05:07:21.143Z,19.80
2018-07-13T05:08:24.550Z,19.80
2018-07-13T05:09:27.943Z,19.80
2018-07-13T05:10:32.653Z,19.80
2018-07-13T05:11:36.283Z,19.80
2018-07-13T05:12:39.680Z,19.80
2018-07-13T05:13:43.071Z,19.80
2018-07-13T05:14:46.456Z,19.80
2018-07-13T05:15:51.044Z,19.80
2018-07-13T05:16:54.463Z,19.80
2018-07-13T05:17:57.863Z,19.80
2018-07-13T05:19:01.251Z,19.80
2018-07-13T05:20:05.551Z,19.80
2018-07-13T05:21:10.145Z,19.80
2018-07-13T05:22:13.632Z,19.70
2018-07-13T05:23:17.040Z,19.70
2018-07-13T05:25:24.644Z,19.70
2018-07-13T05:26:29.436Z,19.60
2018-07-13T05:27:33.140Z,19.60
2018-07-13T05:28:36.539Z,19.60
2018-07-13T05:30:44.198Z,19.60
2018-07-13T05:31:47.640Z,19.60
2018-07-13T05:32:51.025Z,19.70
2018-07-13T05:33:54.427Z,19.70
2018-07-13T05:34:58.259Z,19.70
2018-07-13T05:36:02.709Z,19.80
2018-07-13T05:37:06.168Z,19.80
2018-07-13T05:38:09.570Z,19.90
2018-07-13T05:40:17.180Z,19.80
2018-07-13T05:41:23.041Z,19.80
2018-07-13T05:42:26.883Z,19.80
2018-07-13T05:43:30.275Z,19.80
2018-07-13T05:44:33.676Z,19.80
2018-07-13T05:46:41.433Z,19.80
2018-07-13T05:47:44.823Z,19.70
2018-07-13T05:48:48.216Z,19.70
2018-07-13T05:49:51.673Z,19.70
2018-07-13T05:50:56.109Z,19.70
2018-07-13T05:54:05.880Z,19.80
2018-07-13T05:56:14.100Z,19.70
2018-07-13T05:57:17.523Z,19.70
2018-07-13T05:58:20.920Z,19.70
2018-07-13T05:59:24.319Z,19.70
2018-07-13T06:00:28.923Z,19.80
2018-07-13T06:01:32.376Z,19.80
2018-07-13T06:02:35.988Z,19.80
2018-07-13T06:03:39.587Z,19.80
2018-07-13T06:04:42.987Z,19.70
2018-07-13T06:05:47.424Z,19.80
2018-07-13T06:07:53.959Z,19.70
2018-07-13T06:08:57.519Z,19.70
2018-07-13T06:10:00.916Z,19.70
2018-07-13T06:11:06.253Z,19.60
2018-07-13T06:12:09.664Z,19.70
2018-07-13T06:13:13.083Z,19.70
2018-07-13T06:14:16.528Z,19.80
2018-07-13T06:15:21.316Z,19.80
2018-07-13T06:16:26.015Z,19.80
2018-07-13T06:17:29.452Z,19.80
2018-07-13T06:18:32.855Z,19.90
2018-07-13T06:19:36.378Z,19.80
2018-07-13T06:20:40.916Z,19.80
2018-07-13T06:21:45.850Z,19.80
2018-07-13T06:22:49.341Z,19.80
2018-07-13T06:23:52.743Z,19.80
2018-07-13T06:24:56.154Z,19.80
2018-07-13T06:27:03.516Z,19.80
2018-07-13T06:28:07.270Z,19.90
2018-07-13T06:29:10.663Z,19.90
2018-07-13T06:30:15.210Z,19.90
2018-07-13T06:32:22.500Z,19.90
2018-07-13T06:33:25.915Z,19.90
2018-07-13T06:34:30.807Z,19.90
2018-07-13T06:35:35.221Z,20.00
2018-07-13T06:36:39.267Z,20.00
2018-07-13T06:37:42.667Z,20.00
2018-07-13T06:38:46.064Z,20.10
2018-07-13T06:39:49.576Z,20.00
2018-07-13T06:40:54.149Z,20.00
2018-07-13T06:41:57.574Z,20.00
2018-07-13T06:43:00.951Z,20.10
2018-07-13T06:44:04.735Z,20.00
2018-07-13T06:45:09.132Z,20.00
2018-07-13T06:46:13.923Z,20.00
2018-07-13T06:47:17.370Z,20.00
2018-07-13T06:48:20.779Z,20.00
2018-07-13T06:51:31.898Z,20.00
2018-07-13T06:52:35.284Z,20.10
2018-07-13T06:53:38.726Z,20.10
2018-07-13T06:54:42.323Z,20.10
2018-07-13T06:56:50.076Z,20.10
2018-07-13T06:58:04.800Z,20.10
2018-07-13T06:59:15.320Z,20.20
2018-07-13T07:02:02.819Z,20.20
2018-07-13T07:03:06.524Z,20.30
2018-07-13T07:04:41.085Z,20.30
2018-07-13T07:06:06.773Z,20.30
2018-07-13T07:07:15.843Z,20.30
2018-07-13T07:08:19.247Z,20.30
2018-07-13T07:09:23.027Z,20.40
2018-07-13T07:10:28.032Z,20.40
2018-07-13T07:11:32.472Z,20.40
2018-07-13T07:12:54.287Z,20.40
2018-07-13T07:13:57.684Z,20.50
2018-07-13T07:15:01.601Z,20.50
2018-07-13T07:16:06.282Z,20.50
2018-07-13T07:17:09.727Z,20.50
2018-07-13T07:18:13.168Z,20.50
2018-07-13T07:19:16.537Z,20.50
2018-07-13T07:20:20.890Z,20.50
2018-07-13T07:21:25.263Z,20.60
2018-07-13T07:23:32.439Z,20.60
2018-07-13T07:24:35.906Z,20.60
2018-07-13T07:25:40.266Z,20.50
2018-07-13T07:26:43.740Z,20.60
2018-07-13T07:27:47.138Z,20.50
2018-07-13T07:28:50.524Z,20.50
2018-07-13T07:29:53.907Z,20.60
2018-07-13T07:30:59.141Z,20.60
2018-07-13T07:33:05.853Z,20.60
2018-07-13T07:34:09.253Z,20.60
2018-07-13T07:35:13.707Z,20.60
2018-07-13T07:36:18.088Z,20.70
2018-07-13T07:37:21.489Z,20.70
2018-07-13T07:38:25.101Z,20.70
2018-07-13T07:39:28.440Z,20.70
2018-07-13T07:40:32.910Z,20.70
2018-07-13T07:41:36.351Z,20.70
2018-07-13T07:42:39.920Z,20.80
2018-07-13T07:43:43.312Z,20.80
2018-07-13T07:44:46.808Z,20.80
2018-07-13T07:45:52.111Z,20.80
2018-07-13T07:46:55.535Z,20.80
2018-07-13T07:47:58.925Z,20.80
2018-07-13T07:49:02.414Z,20.90
2018-07-13T07:50:07.312Z,20.90
2018-07-13T07:51:11.753Z,20.90
2018-07-13T07:53:18.359Z,20.90
2018-07-13T07:54:21.756Z,20.90
2018-07-13T07:55:26.156Z,20.90
2018-07-13T07:56:30.293Z,20.90
2018-07-13T07:57:33.775Z,21.00
2018-07-13T07:58:37.104Z,21.00
2018-07-13T07:59:40.499Z,21.00
2018-07-13T08:01:47.688Z,21.00
2018-07-13T08:02:51.253Z,21.10
2018-07-13T08:03:54.682Z,21.00
2018-07-13T08:04:58.117Z,21.00
2018-07-13T08:06:02.784Z,21.00
2018-07-13T08:07:06.704Z,21.00
2018-07-13T08:08:09.659Z,21.00
2018-07-13T08:09:13.599Z,21.00
2018-07-13T08:10:18.533Z,21.00
2018-07-13T08:12:25.823Z,21.10
2018-07-13T08:13:29.225Z,21.20
2018-07-13T08:14:32.626Z,21.20
2018-07-13T08:15:37.207Z,21.20
2018-07-13T08:16:40.695Z,21.20
2018-07-13T08:17:44.084Z,21.20
2018-07-13T08:19:50.596Z,21.20
2018-07-13T08:20:55.385Z,21.20
2018-07-13T08:22:08.335Z,21.20
2018-07-13T08:23:11.776Z,21.20
2018-07-13T08:25:25.294Z,21.20
2018-07-13T08:27:41.463Z,21.30
2018-07-13T08:28:46.012Z,21.30
2018-07-13T08:29:50.475Z,21.30
2018-07-13T08:31:02.795Z,21.30
2018-07-13T08:33:09.378Z,21.30
2018-07-13T08:34:12.768Z,21.30
2018-07-13T08:36:21.694Z,21.30
2018-07-13T08:37:25.115Z,21.40
2018-07-13T08:38:28.511Z,21.50
2018-07-13T08:39:31.916Z,21.50
2018-07-13T08:40:36.956Z,21.50
2018-07-13T08:42:43.507Z,21.50
2018-07-13T08:43:46.899Z,21.50
2018-07-13T08:44:50.305Z,21.50
2018-07-13T08:45:54.833Z,21.50
2018-07-13T08:46:58.227Z,21.50
2018-07-13T08:48:01.655Z,21.50
2018-07-13T08:49:05.335Z,21.50
2018-07-13T08:50:09.906Z,21.60
2018-07-13T08:51:14.462Z,21.60
2018-07-13T08:52:17.915Z,21.60
2018-07-13T08:55:28.952Z,21.70
2018-07-13T08:56:33.548Z,21.70
2018-07-13T08:57:36.936Z,21.80
2018-07-13T08:58:40.323Z,21.70
2018-07-13T08:59:43.777Z,21.70
2018-07-13T09:00:49.152Z,21.70
2018-07-13T09:01:52.603Z,21.80
2018-07-13T09:02:55.984Z,21.80
2018-07-13T09:03:59.434Z,21.80
2018-07-13T09:05:03.188Z,21.80
2018-07-13T09:06:07.735Z,21.80
2018-07-13T09:07:11.192Z,21.80
2018-07-13T09:08:14.620Z,21.90
2018-07-13T09:09:18.615Z,21.90
2018-07-13T09:10:22.966Z,21.90
2018-07-13T09:11:27.302Z,21.90
2018-07-13T09:12:31.119Z,21.90
2018-07-13T09:13:34.515Z,21.90
2018-07-13T09:14:37.915Z,21.90
2018-07-13T09:15:42.435Z,22.00
2018-07-13T09:16:45.879Z,22.00
2018-07-13T09:17:49.280Z,22.00
2018-07-13T09:18:52.743Z,22.00
2018-07-13T09:19:56.139Z,22.00
2018-07-13T09:21:00.679Z,22.00
2018-07-13T09:22:04.099Z,22.10
2018-07-13T09:23:07.486Z,22.10
2018-07-13T09:24:10.899Z,22.10
2018-07-13T09:25:15.285Z,22.10
2018-07-13T09:26:19.686Z,22.20
2018-07-13T09:27:23.109Z,22.20
2018-07-13T09:28:26.491Z,22.20
2018-07-13T09:29:29.903Z,22.20
2018-07-13T09:30:34.470Z,22.20
2018-07-13T09:31:37.926Z,22.20
2018-07-13T09:32:41.507Z,22.20
2018-07-13T09:33:44.899Z,22.20
2018-07-13T09:34:48.307Z,22.20
2018-07-13T09:36:55.563Z,22.20
2018-07-13T09:37:58.985Z,22.30
2018-07-13T09:39:02.372Z,22.30
2018-07-13T09:40:06.920Z,22.30
2018-07-13T09:41:12.204Z,22.40
2018-07-13T09:42:15.640Z,22.40
2018-07-13T09:43:19.042Z,22.40
2018-07-13T09:44:22.432Z,22.50
2018-07-13T09:45:26.847Z,22.50
2018-07-13T09:46:30.680Z,22.50
2018-07-13T09:47:34.623Z,22.50
2018-07-13T09:48:38.016Z,22.50
2018-07-13T09:49:41.434Z,22.50
2018-07-13T09:51:48.757Z,22.50
2018-07-13T09:52:52.485Z,22.50
2018-07-13T09:53:56.030Z,22.50
2018-07-13T09:54:59.392Z,22.50
2018-07-13T09:56:03.911Z,22.50
2018-07-13T09:57:07.359Z,22.50
2018-07-13T09:58:10.775Z,22.50
2018-07-13T09:59:14.159Z,22.50
2018-07-13T10:01:23.913Z,22.50
2018-07-13T10:02:27.318Z,22.50
2018-07-13T10:03:31.144Z,22.50
2018-07-13T10:04:34.534Z,22.50
2018-07-13T10:05:39.043Z,22.60
2018-07-13T10:07:45.603Z,22.70
2018-07-13T10:08:49.016Z,22.80
2018-07-13T10:09:52.431Z,22.80
2018-07-13T10:10:57.207Z,22.80
2018-07-13T10:12:00.696Z,22.80
2018-07-13T10:13:04.215Z,22.80
2018-07-13T10:15:11.714Z,22.80
2018-07-13T10:16:16.128Z,22.80
2018-07-13T10:17:19.591Z,22.90
2018-07-13T10:18:22.988Z,22.90
2018-07-13T10:19:26.394Z,22.90
2018-07-13T10:20:30.875Z,22.90
2018-07-13T10:21:35.427Z,22.90
2018-07-13T10:22:38.855Z,23.00
2018-07-13T10:23:43.328Z,23.00
2018-07-13T10:24:47.311Z,23.00
2018-07-13T10:25:55.555Z,23.00
2018-07-13T10:26:59.503Z,23.00
2018-07-13T10:28:02.931Z,23.10
2018-07-13T10:29:09.345Z,23.10
2018-07-13T10:31:17.848Z,23.00
2018-07-13T10:32:21.320Z,23.10
2018-07-13T10:33:24.964Z,23.10
2018-07-13T10:34:28.347Z,23.10
2018-07-13T10:35:33.851Z,23.10
2018-07-13T10:36:41.043Z,23.10
2018-07-13T10:37:44.436Z,23.20
2018-07-13T10:38:47.902Z,23.20
2018-07-13T10:40:55.407Z,23.20
2018-07-13T10:41:58.950Z,23.20
2018-07-13T10:43:02.628Z,23.30
2018-07-13T10:44:06.304Z,23.30
2018-07-13T10:45:10.570Z,23.30
2018-07-13T10:46:15.087Z,23.30
2018-07-13T10:47:18.503Z,23.30
2018-07-13T10:48:21.899Z,23.30
2018-07-13T10:49:25.279Z,23.40
2018-07-13T10:50:30.233Z,23.40
2018-07-13T10:52:36.747Z,23.40
2018-07-13T10:53:40.278Z,23.40
2018-07-13T10:54:43.651Z,23.40
2018-07-13T10:55:48.002Z,23.40
2018-07-13T10:56:51.616Z,23.40
2018-07-13T10:57:55.154Z,23.50
2018-07-13T10:58:58.528Z,23.50
2018-07-13T11:00:01.920Z,23.50
2018-07-13T11:01:06.359Z,23.50
2018-07-13T11:03:12.864Z,23.50
2018-07-13T11:04:16.257Z,23.40
2018-07-13T11:05:20.783Z,23.40
2018-07-13T11:06:25.126Z,23.40
2018-07-13T11:07:28.546Z,23.40
2018-07-13T11:08:31.948Z,23.40
2018-07-13T11:09:35.363Z,23.50
2018-07-13T11:10:40.730Z,23.50
2018-07-13T11:11:44.160Z,23.50
2018-07-13T11:12:47.558Z,23.50
2018-07-13T11:13:51.137Z,23.50
2018-07-13T11:14:54.411Z,23.60
2018-07-13T11:15:58.975Z,23.60
2018-07-13T11:18:05.561Z,23.60
2018-07-13T11:19:08.956Z,23.60
2018-07-13T11:20:14.149Z,23.70
2018-07-13T11:21:18.513Z,23.70
2018-07-13T11:23:25.106Z,23.60
2018-07-13T11:24:28.487Z,23.60
2018-07-13T11:25:32.910Z,23.60
2018-07-13T11:26:36.341Z,23.60
2018-07-13T11:28:42.803Z,23.60
2018-07-13T11:29:46.228Z,23.60
2018-07-13T11:30:50.682Z,23.70
2018-07-13T11:31:54.127Z,23.70
2018-07-13T11:32:57.835Z,23.70
2018-07-13T11:34:01.294Z,23.70
2018-07-13T11:35:05.660Z,23.70
2018-07-13T11:36:10.121Z,23.70
2018-07-13T11:38:16.684Z,23.80
2018-07-13T11:39:20.140Z,23.80
2018-07-13T11:40:24.720Z,23.80
2018-07-13T11:41:28.963Z,23.80
2018-07-13T11:42:32.376Z,23.80
2018-07-13T11:43:35.891Z,23.80
2018-07-13T11:44:39.276Z,23.90
2018-07-13T11:45:43.726Z,23.90
2018-07-13T11:46:47.168Z,24.00
2018-07-13T11:47:50.555Z,24.00
2018-07-13T11:48:53.959Z,24.00
2018-07-13T11:49:57.347Z,24.00
2018-07-13T11:51:02.729Z,24.00
2018-07-13T11:52:06.175Z,24.10
2018-07-13T11:53:09.644Z,24.10
2018-07-13T11:54:13.059Z,24.10
2018-07-13T11:55:17.466Z,24.10
2018-07-13T11:57:25.139Z,24.10
2018-07-13T11:58:28.567Z,24.10
2018-07-13T11:59:31.962Z,24.10
2018-07-13T12:00:36.433Z,24.10
2018-07-13T12:02:42.968Z,24.10
2018-07-13T12:03:46.375Z,24.20
2018-07-13T12:04:49.796Z,24.20
2018-07-13T12:06:56.947Z,24.20
2018-07-13T12:08:00.332Z,24.20
2018-07-13T12:09:04.304Z,24.30
2018-07-13T12:10:10.728Z,24.30
2018-07-13T12:11:15.233Z,24.30
2018-07-13T12:12:18.671Z,24.40
2018-07-13T12:13:22.072Z,24.40
2018-07-13T12:14:25.557Z,24.40
2018-07-13T12:15:30.105Z,24.40
2018-07-13T12:16:33.602Z,24.50
2018-07-13T12:17:36.960Z,24.50
2018-07-13T12:18:46.889Z,24.50
2018-07-13T12:19:50.387Z,24.50
2018-07-13T12:20:55.304Z,24.50
2018-07-13T12:21:58.789Z,24.50
2018-07-13T12:23:02.203Z,24.50
2018-07-13T12:24:05.635Z,24.50
2018-07-13T12:25:10.061Z,24.50
2018-07-13T12:27:17.425Z,24.50
2018-07-13T12:28:20.808Z,24.50
2018-07-13T12:29:24.191Z,24.60
2018-07-13T12:30:28.702Z,24.60
2018-07-13T12:31:32.176Z,24.60
2018-07-13T12:32:35.600Z,24.70
2018-07-13T12:33:38.991Z,24.70
2018-07-13T12:34:42.399Z,24.70
2018-07-13T12:35:46.766Z,24.80
2018-07-13T12:36:50.283Z,24.80
2018-07-13T12:37:53.692Z,24.80
2018-07-13T12:38:57.080Z,24.90
2018-07-13T12:42:07.640Z,25.00
2018-07-13T12:43:11.023Z,25.00
2018-07-13T12:44:14.403Z,25.10
2018-07-13T12:45:18.820Z,25.10
2018-07-13T12:47:25.836Z,25.20
2018-07-13T12:48:29.226Z,25.30
2018-07-13T12:49:32.612Z,25.30
2018-07-13T12:50:37.071Z,25.30
2018-07-13T12:51:40.519Z,25.40
2018-07-13T12:52:43.911Z,25.40
2018-07-13T12:53:47.363Z,25.40
2018-07-13T12:54:50.695Z,25.40
2018-07-13T12:55:55.126Z,25.40
2018-07-13T12:56:58.602Z,25.40
2018-07-13T12:58:01.987Z,25.40
2018-07-13T12:59:05.371Z,25.50
2018-07-13T13:00:10.036Z,25.50
2018-07-13T13:01:15.593Z,25.50
2018-07-13T13:02:19.039Z,25.50
2018-07-13T13:07:35.488Z,25.60
2018-07-13T13:08:38.868Z,25.70
2018-07-13T13:09:42.310Z,25.70
2018-07-13T13:10:47.617Z,25.80
2018-07-13T13:11:51.043Z,25.80
2018-07-13T13:12:54.515Z,25.90
2018-07-13T13:13:57.915Z,25.90
2018-07-13T13:15:01.300Z,26.00
2018-07-13T13:16:05.845Z,26.10
2018-07-13T13:17:09.263Z,26.20
2018-07-13T13:18:12.658Z,26.20
2018-07-13T13:19:16.075Z,26.20
2018-07-13T13:20:20.446Z,26.20
2018-07-13T13:21:24.610Z,26.30
2018-07-13T13:22:28.040Z,26.30
2018-07-13T13:23:31.428Z,26.30
2018-07-13T13:24:34.815Z,26.30
2018-07-13T13:25:39.351Z,26.30
2018-07-13T13:26:42.816Z,26.30
2018-07-13T13:27:46.211Z,26.40
2018-07-13T13:28:49.611Z,26.30
2018-07-13T13:29:53.007Z,26.30
2018-07-13T13:32:00.199Z,26.30
2018-07-13T13:35:11.374Z,26.40
2018-07-13T13:36:16.627Z,26.40
2018-07-13T13:37:20.164Z,26.40
2018-07-13T13:38:23.563Z,26.40
2018-07-13T13:39:26.951Z,26.40
2018-07-13T13:40:31.365Z,26.40
2018-07-13T13:42:37.876Z,26.50
2018-07-13T13:43:41.261Z,26.50
2018-07-13T13:44:45.500Z,26.60
2018-07-13T13:45:49.931Z,26.60
2018-07-13T13:46:53.364Z,26.70
2018-07-13T13:47:56.761Z,26.70
2018-07-13T13:49:00.161Z,26.70
2018-07-13T13:50:03.715Z,26.70
2018-07-13T13:51:08.228Z,26.80
2018-07-13T13:52:11.687Z,26.80
2018-07-13T13:55:22.760Z,27.00
2018-07-13T13:56:27.014Z,27.00
2018-07-13T13:57:30.466Z,27.00
2018-07-13T13:59:37.000Z,27.10
2018-07-13T14:00:41.510Z,27.10
2018-07-13T14:03:51.229Z,27.10
2018-07-13T14:04:54.639Z,27.10
2018-07-13T14:05:59.675Z,27.10
2018-07-13T14:07:03.092Z,27.00
2018-07-13T14:08:06.497Z,27.00
2018-07-13T14:09:09.957Z,26.90
2018-07-13T14:10:14.667Z,26.90
2018-07-13T14:11:19.331Z,26.90
2018-07-13T14:12:22.803Z,26.90
2018-07-13T14:14:29.361Z,26.90
2018-07-13T14:15:34.110Z,26.90
2018-07-13T14:16:37.528Z,26.90
2018-07-13T14:17:40.948Z,26.90
2018-07-13T14:19:47.433Z,27.00
2018-07-13T14:20:52.344Z,27.00
2018-07-13T14:21:55.761Z,27.00
2018-07-13T14:22:59.156Z,26.90
2018-07-13T14:24:02.584Z,26.90
2018-07-13T14:25:07.025Z,26.90
2018-07-13T14:26:11.623Z,26.90
2018-07-13T14:27:15.072Z,27.00
2018-07-13T14:28:18.510Z,27.10
2018-07-13T14:29:21.892Z,27.10
2018-07-13T14:30:26.363Z,27.20
2018-07-13T14:31:30.199Z,27.20
2018-07-13T14:32:33.588Z,27.30
2018-07-13T14:33:36.988Z,27.20
2018-07-13T14:34:40.383Z,27.20
2018-07-13T14:35:44.753Z,27.30
2018-07-13T14:36:48.160Z,27.30
2018-07-13T14:37:51.623Z,27.30
2018-07-13T14:39:58.115Z,27.40
2018-07-13T14:41:02.639Z,27.40
2018-07-13T14:42:06.040Z,27.40
2018-07-13T14:43:09.427Z,27.50
2018-07-13T14:44:12.879Z,27.60
2018-07-13T14:45:17.246Z,27.60
2018-07-13T14:48:27.655Z,27.70
2018-07-13T14:49:31.110Z,27.80
2018-07-13T14:50:35.421Z,27.90
2018-07-13T14:51:38.840Z,27.90
2018-07-13T14:52:42.223Z,28.00
2018-07-13T14:53:45.628Z,28.10
2018-07-13T14:54:49.024Z,28.10
2018-07-13T14:55:53.463Z,28.10
2018-07-13T14:56:56.887Z,28.20
2018-07-13T14:58:00.285Z,28.20
2018-07-13T14:59:03.686Z,28.30
2018-07-13T15:00:08.109Z,28.40
2018-07-13T15:01:13.151Z,28.40
2018-07-13T15:02:16.576Z,28.50
2018-07-13T15:03:20.020Z,28.50
2018-07-13T15:04:23.453Z,28.50
2018-07-13T15:05:27.939Z,28.50
2018-07-13T15:06:33.118Z,28.50
2018-07-13T15:07:36.392Z,28.60
2018-07-13T15:08:39.796Z,28.60
2018-07-13T15:09:43.263Z,28.70
2018-07-13T15:10:47.582Z,28.80
2018-07-13T15:11:50.960Z,28.80
2018-07-13T15:12:54.348Z,28.80
2018-07-13T15:13:57.748Z,28.80
2018-07-13T15:15:01.139Z,28.80
2018-07-13T15:16:05.647Z,28.80
2018-07-13T15:17:09.052Z,28.90
2018-07-13T15:18:12.437Z,28.90
2018-07-13T15:19:15.847Z,29.00
2018-07-13T15:20:20.529Z,29.00
2018-07-13T15:21:24.340Z,29.10
2018-07-13T15:22:27.769Z,29.10
2018-07-13T15:25:38.938Z,29.30
2018-07-13T15:26:42.344Z,29.40
2018-07-13T15:27:45.742Z,29.40
2018-07-13T15:28:49.127Z,29.50
2018-07-13T15:29:52.531Z,29.40
2018-07-13T15:30:57.045Z,29.50